Time;durP1;ratioP1;P1;durP2;ratioP2;P2;SDS_P1;SDS_P2;PMS_P1;PMS_P2;Temp;Humidity;BMP_temperature;BMP_pressure;BME280_temperature;BME280_humidity;BME280_pressure;Samples;Min_cycle;Max_cycle;Signal;HPM_P1;HPM_P2
2022/11/28 00:01:07;;;;;;;28.45;16.88;;;5.40;99.90;;;;;;5074764;28;20057;-38
2022/11/28 00:03:33;;;;;;;28.88;17.50;;;5.50;99.90;;;;;;5075168;28;20055;-41
2022/11/28 00:06:06;;;;;;;30.00;17.52;;;5.50;99.90;;;;;;5074968;28;20041;-37
2022/11/28 00:08:33;;;;;;;28.98;17.25;;;5.50;99.90;;;;;;5075073;28;20052;-40
2022/11/28 00:11:06;;;;;;;28.70;17.63;;;5.60;99.90;;;;;;5074989;28;20051;-39
2022/11/28 00:13:32;;;;;;;30.17;17.52;;;5.60;99.90;;;;;;5075756;28;20056;-36
2022/11/28 00:15:59;;;;;;;25.55;17.15;;;5.50;99.90;;;;;;5075259;28;20048;-42
2022/11/28 00:18:25;;;;;;;33.83;19.92;;;5.60;99.90;;;;;;5074821;28;20048;-42
2022/11/28 00:20:51;;;;;;;29.42;17.63;;;5.40;99.90;;;;;;5075308;28;20124;-41
2022/11/28 00:23:17;;;;;;;32.17;18.88;;;5.60;99.90;;;;;;5075230;28;20487;-40
2022/11/28 00:25:43;;;;;;;30.38;19.08;;;5.40;99.90;;;;;;5074562;28;20128;-39
2022/11/28 00:28:09;;;;;;;27.83;17.70;;;5.60;99.90;;;;;;5074869;28;20086;-41
2022/11/28 00:30:38;;;;;;;38.72;19.83;;;5.40;99.90;;;;;;5040215;28;20044;-41
2022/11/28 00:33:03;;;;;;;34.28;20.08;;;5.50;99.90;;;;;;5075073;28;20082;-41
2022/11/28 00:35:29;;;;;;;25.95;17.67;;;5.50;99.90;;;;;;5074474;28;20124;-41
2022/11/28 00:37:55;;;;;;;27.92;17.48;;;5.50;99.90;;;;;;5073848;28;20041;-40
2022/11/28 00:40:21;;;;;;;27.63;17.52;;;5.60;99.90;;;;;;5074349;28;20052;-41
2022/11/28 00:42:47;;;;;;;31.00;17.67;;;5.60;99.90;;;;;;5056480;28;20094;-41
2022/11/28 00:45:13;;;;;;;25.02;15.93;;;5.30;99.90;;;;;;5074251;28;20142;-41
2022/11/28 00:47:38;;;;;;;25.27;16.38;;;5.50;99.90;;;;;;5074254;28;20393;-42
2022/11/28 00:50:05;;;;;;;25.90;16.73;;;5.60;99.90;;;;;;5074156;28;20045;-41
2022/11/28 00:52:31;;;;;;;22.35;14.93;;;5.50;99.90;;;;;;5056824;28;20056;-40
2022/11/28 00:54:57;;;;;;;25.67;16.67;;;5.40;99.90;;;;;;5074098;28;20147;-41
2022/11/28 00:57:23;;;;;;;27.38;15.77;;;5.40;99.90;;;;;;5072541;28;20478;-40
2022/11/28 00:59:49;;;;;;;23.15;14.82;;;5.50;99.90;;;;;;5074010;28;20060;-40
2022/11/28 01:02:14;;;;;;;28.20;16.23;;;5.40;99.90;;;;;;5074003;28;20053;-39
2022/11/28 01:04:40;;;;;;;19.52;13.55;;;5.40;99.90;;;;;;5074026;28;20067;-38
2022/11/28 01:07:06;;;;;;;22.67;15.32;;;5.50;99.90;;;;;;5073571;28;20040;-34
2022/11/28 01:09:31;;;;;;;26.23;15.15;;;5.60;99.90;;;;;;5073486;28;20123;-34
2022/11/28 01:11:57;;;;;;;22.13;14.88;;;5.40;99.90;;;;;;5073849;28;20056;-34
2022/11/28 01:14:24;;;;;;;23.55;14.93;;;5.50;99.90;;;;;;5074707;28;20117;-35
2022/11/28 01:16:49;;;;;;;29.98;15.45;;;5.40;99.90;;;;;;5073734;28;20589;-38
2022/11/28 01:19:15;;;;;;;21.85;14.32;;;5.50;99.90;;;;;;5073840;28;20091;-36
2022/11/28 01:21:42;;;;;;;25.52;14.95;;;5.60;99.90;;;;;;5073771;28;20040;-37
2022/11/28 01:24:08;;;;;;;22.67;12.90;;;5.50;99.90;;;;;;5073765;28;20052;-37
2022/11/28 01:26:34;;;;;;;21.92;14.18;;;5.50;99.90;;;;;;5072701;28;20040;-36
2022/11/28 01:29:00;;;;;;;24.92;13.63;;;5.40;99.90;;;;;;5055775;28;20044;-35
2022/11/28 01:31:27;;;;;;;26.42;15.80;;;5.50;99.90;;;;;;5074238;28;20049;-40
2022/11/28 01:33:54;;;;;;;21.67;14.55;;;5.30;99.90;;;;;;5073646;28;20048;-37
2022/11/28 01:36:20;;;;;;;25.73;16.05;;;5.50;99.90;;;;;;5074172;28;20037;-35
2022/11/28 01:38:47;;;;;;;29.67;15.63;;;5.40;99.90;;;;;;5073602;28;20135;-40
2022/11/28 01:41:15;;;;;;;25.48;14.73;;;5.50;99.90;;;;;;5073581;28;20556;-36
2022/11/28 01:44:14;;;;;;;25.25;15.68;;;5.80;99.90;;;;;;5072404;28;20497;-39
2022/11/28 01:46:40;;;;;;;26.27;14.60;;;5.50;99.90;;;;;;5074046;28;20439;-35
2022/11/28 01:49:45;;;;;;;33.03;15.73;;;5.40;99.90;;;;;;5055668;28;20087;-39
2022/11/28 01:52:14;;;;;;;28.58;16.15;;;5.70;99.90;;;;;;5031805;28;20053;-38
2022/11/28 01:54:43;;;;;;;30.45;16.80;;;5.80;99.90;;;;;;5031151;28;20045;-39
2022/11/28 01:57:15;;;;;;;25.65;15.23;;;5.50;99.90;;;;;;5052787;28;20052;-37
2022/11/28 02:00:03;;;;;;;27.17;14.82;;;5.80;99.90;;;;;;5074008;28;20068;-35
2022/11/28 02:02:36;;;;;;;25.63;15.18;;;5.60;99.90;;;;;;5073397;28;20141;-39
2022/11/28 02:05:03;;;;;;;28.70;16.35;;;5.60;99.90;;;;;;5073318;28;20131;-37
2022/11/28 02:07:29;;;;;;;29.70;16.50;;;5.50;99.90;;;;;;5072129;28;20094;-36
2022/11/28 02:09:55;;;;;;;32.95;17.40;;;5.80;99.90;;;;;;5072978;28;20056;-36
2022/11/28 02:13:02;;;;;;;29.05;17.58;;;5.70;99.90;;;;;;5073544;28;20522;-36
2022/11/28 02:16:05;;;;;;;36.05;19.25;;;5.80;99.90;;;;;;5073581;28;20041;-34
2022/11/28 02:19:11;;;;;;;33.37;19.83;;;5.80;99.90;;;;;;5073259;28;20040;-37
2022/11/28 02:21:53;;;;;;;39.95;19.02;;;5.60;99.90;;;;;;5076803;28;20667;-36
2022/11/28 02:24:41;;;;;;;44.70;21.40;;;5.70;99.90;;;;;;5075628;28;20510;-35
2022/11/28 02:27:18;;;;;;;35.63;20.65;;;5.80;99.90;;;;;;5076905;28;20094;-36
2022/11/28 02:30:17;;;;;;;42.03;22.67;;;5.80;99.90;;;;;;5076876;28;20044;-39
2022/11/28 02:32:58;;;;;;;40.85;21.92;;;5.70;99.90;;;;;;5076806;28;20174;-34
2022/11/28 02:35:35;;;;;;;41.88;23.63;;;5.80;99.90;;;;;;5076818;28;20044;-40
2022/11/28 02:38:28;;;;;;;42.78;23.13;;;5.80;99.90;;;;;;5076747;28;20394;-41
2022/11/28 02:41:04;;;;;;;46.28;25.08;;;5.80;99.90;;;;;;5076363;28;20080;-36
2022/11/28 02:43:34;;;;;;;45.35;25.80;;;5.90;99.90;;;;;;5077239;28;20043;-39
2022/11/28 02:46:14;;;;;;;43.42;25.88;;;5.70;99.90;;;;;;5076155;28;20376;-35
2022/11/28 02:48:57;;;;;;;50.22;27.17;;;5.80;99.90;;;;;;5077176;28;20486;-38
2022/11/28 02:51:49;;;;;;;44.60;25.67;;;5.90;99.90;;;;;;5077374;28;20044;-37
2022/11/28 02:54:17;;;;;;;55.15;28.85;;;5.80;99.90;;;;;;5075815;28;20049;-39
2022/11/28 02:56:48;;;;;;;53.08;29.05;;;5.90;99.90;;;;;;5076419;28;20458;-36
2022/11/28 02:59:37;;;;;;;57.20;28.80;;;5.90;99.90;;;;;;5076322;28;20052;-40
2022/11/28 03:02:31;;;;;;;52.78;28.60;;;5.90;99.90;;;;;;5075217;28;20062;-41
2022/11/28 03:05:20;;;;;;;62.83;31.83;;;6.00;99.90;;;;;;5076270;28;20101;-42
2022/11/28 03:08:00;;;;;;;55.25;29.48;;;5.80;99.90;;;;;;5075061;28;20044;-42
2022/11/28 03:10:41;;;;;;;50.85;30.52;;;5.80;99.90;;;;;;5076191;28;20041;-42
2022/11/28 03:13:17;;;;;;;56.60;30.85;;;5.90;99.90;;;;;;5076138;28;20434;-42
2022/11/28 03:16:25;;;;;;;59.67;31.98;;;5.90;99.90;;;;;;5076067;28;20554;-41
2022/11/28 03:19:01;;;;;;;52.85;30.88;;;6.00;99.90;;;;;;5075595;28;20040;-40
2022/11/28 03:21:39;;;;;;;69.28;33.40;;;6.10;99.90;;;;;;5076284;28;20084;-39
2022/11/28 03:24:16;;;;;;;46.72;27.00;;;5.90;99.90;;;;;;5075875;28;20048;-37
2022/11/28 03:27:30;;;;;;;54.58;31.92;;;6.10;99.90;;;;;;5076637;28;20044;-40
2022/11/28 03:30:02;;;;;;;62.08;32.13;;;5.90;99.90;;;;;;5033817;28;20495;-39
2022/11/28 03:32:34;;;;;;;59.70;31.15;;;5.90;99.90;;;;;;5033101;28;20053;-39
2022/11/28 03:35:10;;;;;;;47.45;28.25;;;5.90;99.90;;;;;;5059664;28;20063;-40
2022/11/28 03:37:43;;;;;;;54.28;28.90;;;6.10;99.90;;;;;;5075983;28;20113;-40
2022/11/28 03:40:13;;;;;;;47.75;28.98;;;6.10;99.90;;;;;;5076142;28;20434;-38
2022/11/28 03:42:44;;;;;;;53.55;30.70;;;6.10;99.90;;;;;;5075868;28;20055;-42
2022/11/28 03:45:19;;;;;;;55.67;32.08;;;6.10;99.90;;;;;;5076039;28;20059;-42
2022/11/28 03:47:51;;;;;;;54.67;31.15;;;6.20;99.90;;;;;;5075509;28;20049;-41
2022/11/28 03:50:23;;;;;;;60.92;33.00;;;6.20;99.90;;;;;;5074783;28;20088;-41
2022/11/28 03:52:54;;;;;;;58.92;31.80;;;6.00;99.90;;;;;;5075220;28;20052;-41
2022/11/28 03:55:31;;;;;;;55.97;30.60;;;6.20;99.90;;;;;;5075344;28;20086;-41
2022/11/28 03:58:04;;;;;;;58.40;32.22;;;6.20;99.90;;;;;;5076126;28;20055;-41
2022/11/28 04:00:34;;;;;;;59.10;33.45;;;6.10;99.90;;;;;;5074897;28;20137;-42
2022/11/28 04:03:15;;;;;;;61.83;33.25;;;6.10;99.90;;;;;;5075126;28;20067;-42
2022/11/28 04:06:00;;;;;;;72.65;35.97;;;6.00;99.90;;;;;;5074323;28;20049;-41
2022/11/28 04:08:42;;;;;;;60.88;34.63;;;6.20;99.90;;;;;;5075075;28;20051;-42
2022/11/28 04:11:13;;;;;;;59.80;33.10;;;6.20;99.90;;;;;;5075038;28;20045;-41
2022/11/28 04:14:08;;;;;;;66.38;34.83;;;6.40;99.90;;;;;;5074960;28;20478;-43
2022/11/28 04:16:38;;;;;;;65.70;35.92;;;6.20;99.90;;;;;;5074375;28;20394;-42
2022/11/28 04:19:32;;;;;;;68.80;37.55;;;6.40;99.90;;;;;;5075412;28;20127;-43
2022/11/28 04:22:12;;;;;;;69.82;36.28;;;6.20;99.90;;;;;;5075049;28;20056;-42
2022/11/28 04:24:44;;;;;;;65.68;36.80;;;6.20;99.90;;;;;;5075587;28;20040;-42
2022/11/28 04:27:16;;;;;;;71.93;37.13;;;6.30;99.90;;;;;;5075234;28;20088;-42
2022/11/28 04:29:47;;;;;;;76.00;40.28;;;6.40;99.90;;;;;;5073972;28;20048;-42
2022/11/28 04:32:17;;;;;;;67.90;37.15;;;6.50;99.90;;;;;;5074605;28;20041;-42
2022/11/28 04:34:48;;;;;;;77.25;39.47;;;6.30;99.90;;;;;;5075160;28;20083;-42
2022/11/28 04:37:15;;;;;;;70.15;37.53;;;6.30;99.90;;;;;;5075349;28;20367;-42
2022/11/28 04:39:44;;;;;;;76.97;39.17;;;6.50;99.90;;;;;;5073835;28;20109;-42
2022/11/28 04:42:13;;;;;;;68.40;36.88;;;6.50;99.90;;;;;;5074161;28;20518;-42
2022/11/28 04:45:01;;;;;;;60.63;35.25;;;6.60;99.90;;;;;;5073789;28;20055;-42
2022/11/28 04:47:27;;;;;;;63.13;35.25;;;6.50;99.90;;;;;;5074022;28;20085;-42
2022/11/28 04:49:53;;;;;;;61.15;34.28;;;6.60;99.90;;;;;;5074269;28;20056;-42
2022/11/28 04:52:28;;;;;;;63.78;33.40;;;6.60;99.90;;;;;;5074196;28;20060;-42
2022/11/28 04:55:17;;;;;;;64.22;35.33;;;6.70;99.90;;;;;;5074750;28;20129;-42
2022/11/28 04:57:47;;;;;;;56.67;32.78;;;6.60;99.90;;;;;;5074398;28;20048;-42
2022/11/28 05:00:16;;;;;;;61.30;33.00;;;6.70;99.90;;;;;;5073107;28;20052;-41
2022/11/28 05:02:44;;;;;;;71.50;38.65;;;6.70;99.90;;;;;;5073027;28;20055;-41
2022/11/28 05:05:16;;;;;;;74.20;36.80;;;6.70;99.90;;;;;;5073898;28;20493;-43
2022/11/28 05:07:42;;;;;;;57.92;34.17;;;6.80;99.90;;;;;;5073699;28;20384;-42
2022/11/28 05:10:09;;;;;;;62.38;34.53;;;6.80;99.90;;;;;;5072912;28;20066;-41
2022/11/28 05:12:35;;;;;;;64.45;36.90;;;6.80;99.90;;;;;;5072922;28;20138;-42
2022/11/28 05:15:01;;;;;;;61.97;35.53;;;6.80;99.90;;;;;;5074358;28;20218;-42
2022/11/28 05:17:27;;;;;;;54.65;32.42;;;6.80;99.90;;;;;;5072604;28;20059;-42
2022/11/28 05:19:52;;;;;;;63.90;32.33;;;6.70;99.90;;;;;;5072378;28;20410;-42
2022/11/28 05:22:18;;;;;;;65.07;35.42;;;6.80;99.90;;;;;;5073987;28;20101;-42
2022/11/28 05:24:44;;;;;;;61.92;35.03;;;6.80;99.90;;;;;;5072797;28;20052;-42
2022/11/28 05:27:10;;;;;;;52.95;31.48;;;7.00;99.90;;;;;;5073624;28;20474;-43
2022/11/28 05:29:36;;;;;;;53.72;32.53;;;6.90;99.90;;;;;;5073633;28;20063;-43
2022/11/28 05:32:03;;;;;;;46.25;28.90;;;6.90;99.90;;;;;;5072703;28;20439;-43
2022/11/28 05:34:30;;;;;;;54.33;31.75;;;7.00;99.90;;;;;;5073620;28;20520;-44
2022/11/28 05:36:56;;;;;;;53.95;31.15;;;7.00;99.90;;;;;;5073586;28;20513;-43
2022/11/28 05:39:22;;;;;;;56.22;33.65;;;7.10;99.90;;;;;;5073623;28;20060;-43
2022/11/28 05:41:48;;;;;;;48.85;30.13;;;7.00;99.90;;;;;;5073574;28;20048;-43
2022/11/28 05:44:14;;;;;;;65.32;35.00;;;7.10;99.90;;;;;;5073764;28;20087;-43
2022/11/28 05:46:39;;;;;;;55.83;33.03;;;7.10;99.90;;;;;;5073965;28;20467;-43
2022/11/28 05:49:05;;;;;;;49.25;30.85;;;7.10;99.90;;;;;;5073480;28;20087;-43
2022/11/28 05:51:31;;;;;;;52.08;29.00;;;7.00;99.90;;;;;;5056124;28;20045;-42
2022/11/28 05:53:56;;;;;;;50.58;29.00;;;7.10;99.90;;;;;;5073924;28;20048;-43
2022/11/28 05:56:22;;;;;;;51.85;30.08;;;7.10;99.90;;;;;;5076412;28;20094;-43
2022/11/28 05:58:48;;;;;;;56.28;31.55;;;7.10;99.90;;;;;;5077535;28;20474;-42
2022/11/28 06:01:23;;;;;;;54.95;32.17;;;7.00;99.90;;;;;;5078136;28;20489;-43
2022/11/28 06:03:49;;;;;;;52.72;29.65;;;7.10;99.90;;;;;;5078047;28;20059;-43
2022/11/28 06:06:19;;;;;;;56.42;28.48;;;7.20;99.90;;;;;;5077365;28;20053;-43
2022/11/28 06:08:47;;;;;;;58.95;32.45;;;7.00;99.90;;;;;;5077978;28;20410;-43
2022/11/28 06:11:14;;;;;;;54.05;31.73;;;7.10;99.90;;;;;;5078064;28;20417;-43
2022/11/28 06:13:41;;;;;;;48.42;27.38;;;7.10;99.90;;;;;;5077224;28;20045;-43
2022/11/28 06:16:13;;;;;;;45.70;26.48;;;7.20;99.90;;;;;;5077607;28;20048;-41
2022/11/28 06:18:39;;;;;;;46.10;27.25;;;7.40;99.90;;;;;;5077142;28;20048;-42
2022/11/28 06:21:07;;;;;;;45.88;27.33;;;7.20;99.90;;;;;;5076147;28;20084;-43
2022/11/28 06:23:34;;;;;;;47.15;28.35;;;7.20;99.90;;;;;;5076046;28;20045;-43
2022/11/28 06:26:08;;;;;;;51.53;28.60;;;7.40;99.90;;;;;;5076909;28;20048;-44
2022/11/28 06:28:35;;;;;;;44.58;27.67;;;7.30;99.90;;;;;;5076106;28;20053;-44
2022/11/28 06:31:01;;;;;;;39.75;25.45;;;7.40;99.90;;;;;;5076832;28;20049;-45
2022/11/28 06:33:27;;;;;;;45.03;27.10;;;7.20;99.90;;;;;;5076811;28;20131;-44
2022/11/28 06:36:00;;;;;;;49.50;29.10;;;7.20;99.90;;;;;;5076800;28;20080;-43
2022/11/28 06:38:27;;;;;;;50.13;28.73;;;7.40;99.90;;;;;;5076765;28;20045;-44
2022/11/28 06:40:56;;;;;;;47.72;28.45;;;7.20;99.90;;;;;;5076592;28;20082;-43
2022/11/28 06:43:22;;;;;;;57.95;30.75;;;7.40;99.90;;;;;;5076496;28;20044;-44
2022/11/28 06:45:47;;;;;;;50.65;29.35;;;7.40;99.90;;;;;;5076513;28;20386;-43
2022/11/28 06:48:13;;;;;;;43.25;25.40;;;7.40;99.90;;;;;;5076599;28;20048;-42
2022/11/28 06:50:39;;;;;;;46.42;25.70;;;7.30;99.90;;;;;;5076566;28;20049;-44
2022/11/28 06:53:04;;;;;;;42.67;23.88;;;7.20;99.90;;;;;;5076802;28;20056;-43
2022/11/28 06:55:30;;;;;;;41.58;26.08;;;7.40;99.90;;;;;;5076988;28;20104;-44
2022/11/28 06:57:56;;;;;;;39.75;23.30;;;7.40;99.90;;;;;;5076420;28;20044;-43
2022/11/28 07:00:22;;;;;;;43.40;24.30;;;7.20;99.90;;;;;;5076294;28;20143;-43
2022/11/28 07:02:47;;;;;;;36.15;20.50;;;7.50;99.90;;;;;;5076326;28;20072;-42
2022/11/28 07:05:15;;;;;;;39.78;23.55;;;7.40;99.90;;;;;;5076107;28;20045;-43
2022/11/28 07:07:42;;;;;;;53.35;28.10;;;7.70;99.90;;;;;;5075636;28;20089;-44
2022/11/28 07:10:08;;;;;;;40.45;22.83;;;7.40;99.90;;;;;;5076736;28;20059;-43
2022/11/28 07:12:33;;;;;;;35.38;21.52;;;7.30;99.90;;;;;;5076151;28;20049;-43
2022/11/28 07:14:59;;;;;;;38.38;23.30;;;7.10;99.90;;;;;;5076127;28;20059;-44
2022/11/28 07:17:25;;;;;;;32.28;20.90;;;7.10;99.90;;;;;;5074887;28;20041;-44
2022/11/28 07:19:51;;;;;;;48.50;26.65;;;7.50;99.90;;;;;;5076066;28;20570;-44
2022/11/28 07:22:17;;;;;;;39.63;21.73;;;7.40;99.90;;;;;;5076508;28;20048;-44
2022/11/28 07:24:42;;;;;;;39.50;23.27;;;7.60;99.90;;;;;;5075925;28;20054;-43
2022/11/28 07:27:08;;;;;;;53.55;25.40;;;7.40;99.90;;;;;;5076074;28;20040;-44
2022/11/28 07:29:37;;;;;;;43.40;24.15;;;7.70;99.90;;;;;;5076708;28;20056;-44
2022/11/28 07:32:04;;;;;;;34.17;20.40;;;7.20;99.90;;;;;;5075779;28;20049;-43
2022/11/28 07:34:30;;;;;;;34.42;19.67;;;7.10;99.90;;;;;;5075849;28;20045;-43
2022/11/28 07:36:56;;;;;;;40.45;22.98;;;7.80;99.90;;;;;;5075734;28;20471;-42
2022/11/28 07:39:22;;;;;;;35.78;21.45;;;7.10;99.90;;;;;;5074404;28;20048;-43
2022/11/28 07:41:48;;;;;;;42.40;22.95;;;7.50;99.90;;;;;;5075623;28;20063;-43
2022/11/28 07:44:16;;;;;;;34.33;20.20;;;7.20;99.90;;;;;;5075558;28;20371;-42
2022/11/28 07:46:43;;;;;;;31.98;18.88;;;7.20;99.90;;;;;;5075453;28;20053;-43
2022/11/28 07:49:10;;;;;;;32.08;18.95;;;7.20;99.90;;;;;;5076022;28;20087;-43
2022/11/28 07:51:36;;;;;;;28.85;18.45;;;7.20;99.90;;;;;;5075264;28;20094;-43
2022/11/28 07:54:03;;;;;;;28.83;16.98;;;7.40;99.90;;;;;;5074186;28;20053;-43
2022/11/28 07:56:33;;;;;;;29.83;18.95;;;7.80;99.90;;;;;;5075315;28;20048;-43
2022/11/28 07:58:59;;;;;;;29.00;18.00;;;7.20;99.90;;;;;;5075028;28;20458;-43
2022/11/28 08:01:32;;;;;;;32.20;19.90;;;7.80;99.90;;;;;;5075218;28;20125;-43
2022/11/28 08:03:58;;;;;;;29.67;18.42;;;7.40;99.90;;;;;;5075162;28;20056;-43
2022/11/28 08:06:27;;;;;;;34.45;19.73;;;7.70;99.90;;;;;;5075070;28;20444;-43
2022/11/28 08:08:54;;;;;;;30.45;18.50;;;7.70;99.90;;;;;;5075603;28;20080;-44
2022/11/28 08:11:22;;;;;;;34.03;20.70;;;7.40;99.90;;;;;;5074979;28;20121;-44
2022/11/28 08:13:49;;;;;;;30.13;18.20;;;7.60;99.90;;;;;;5074877;28;20448;-44
2022/11/28 08:16:18;;;;;;;34.70;20.48;;;7.20;99.90;;;;;;5075283;28;20056;-43
2022/11/28 08:18:44;;;;;;;31.42;19.63;;;7.80;99.90;;;;;;5074001;28;20479;-44
2022/11/28 08:21:12;;;;;;;33.58;20.10;;;7.20;99.90;;;;;;5074795;28;20040;-44
2022/11/28 08:23:39;;;;;;;34.42;21.67;;;7.80;99.90;;;;;;5057741;28;20410;-43
2022/11/28 08:26:08;;;;;;;35.58;20.13;;;7.80;99.90;;;;;;5073617;28;20040;-44
2022/11/28 08:28:35;;;;;;;35.70;20.50;;;7.80;99.90;;;;;;5074695;28;20055;-44
2022/11/28 08:31:18;;;;;;;30.10;19.75;;;7.80;99.90;;;;;;5075206;28;20376;-44
2022/11/28 08:33:46;;;;;;;33.50;18.20;;;7.60;99.90;;;;;;5074608;28;20048;-44
2022/11/28 08:36:13;;;;;;;26.73;17.20;;;7.80;99.90;;;;;;5075085;28;20054;-44
2022/11/28 08:38:41;;;;;;;32.78;19.92;;;7.90;99.90;;;;;;5074430;28;20057;-44
2022/11/28 08:41:11;;;;;;;25.80;16.02;;;7.30;99.90;;;;;;5074425;28;20091;-43
2022/11/28 08:43:37;;;;;;;28.83;17.55;;;7.70;99.90;;;;;;5074975;28;20040;-44
2022/11/28 08:46:04;;;;;;;36.45;20.77;;;7.50;99.90;;;;;;5074287;28;20036;-44
2022/11/28 08:48:30;;;;;;;28.80;17.98;;;7.30;99.90;;;;;;5074288;28;20047;-44
2022/11/28 08:50:55;;;;;;;31.13;20.38;;;7.50;99.90;;;;;;5074265;28;20048;-44
2022/11/28 08:53:21;;;;;;;38.28;21.50;;;7.90;99.90;;;;;;5074228;28;20051;-44
2022/11/28 08:55:47;;;;;;;41.53;21.98;;;7.80;99.90;;;;;;5073986;28;20059;-44
2022/11/28 08:58:14;;;;;;;33.58;20.42;;;8.00;99.90;;;;;;5074696;28;20360;-43
2022/11/28 09:00:43;;;;;;;33.75;19.50;;;7.70;99.90;;;;;;5073912;28;20068;-43
2022/11/28 09:03:14;;;;;;;28.60;17.35;;;7.90;99.90;;;;;;5074256;28;20542;-45
2022/11/28 09:05:41;;;;;;;31.08;18.98;;;7.30;99.90;;;;;;5073053;28;20044;-44
2022/11/28 09:08:08;;;;;;;44.25;19.63;;;7.70;99.90;;;;;;5074000;28;20202;-44
2022/11/28 09:10:38;;;;;;;27.63;16.20;;;7.60;99.90;;;;;;5073933;28;20040;-44
2022/11/28 09:13:05;;;;;;;24.08;14.77;;;7.70;99.90;;;;;;5073916;28;20141;-43
2022/11/28 09:15:32;;;;;;;25.00;14.63;;;7.50;99.90;;;;;;5073858;28;20044;-43
2022/11/28 09:17:58;;;;;;;25.10;16.65;;;7.80;99.90;;;;;;5072637;28;20044;-44
2022/11/28 09:20:24;;;;;;;25.88;16.50;;;7.40;99.90;;;;;;5072851;28;20155;-43
2022/11/28 09:22:50;;;;;;;24.30;14.63;;;7.80;99.90;;;;;;5074328;28;20048;-43
2022/11/28 09:25:16;;;;;;;26.10;15.77;;;7.30;99.90;;;;;;5073773;28;20082;-42
2022/11/28 09:27:42;;;;;;;21.38;13.55;;;8.00;99.90;;;;;;5073758;28;20044;-40
2022/11/28 09:30:08;;;;;;;28.45;16.80;;;7.90;99.90;;;;;;5072937;28;20398;-43
2022/11/28 09:32:34;;;;;;;26.58;16.20;;;7.40;99.90;;;;;;5073693;28;20052;-43
2022/11/28 09:35:00;;;;;;;25.00;15.48;;;7.50;99.90;;;;;;5073637;28;20083;-41
2022/11/28 09:37:29;;;;;;;26.33;16.13;;;8.10;99.90;;;;;;5073607;28;20083;-42
2022/11/28 09:39:55;;;;;;;27.25;15.57;;;7.50;99.90;;;;;;5074167;28;20084;-42
2022/11/28 09:42:33;;;;;;;29.27;14.88;;;7.50;99.90;;;;;;5073287;28;20095;-43
2022/11/28 09:45:16;;;;;;;24.90;13.98;;;8.00;99.90;;;;;;5072637;28;20045;-42
2022/11/28 09:47:55;;;;;;;25.98;16.00;;;7.50;99.90;;;;;;5074448;28;20040;-43
2022/11/28 09:50:33;;;;;;;26.92;15.85;;;8.10;99.90;;;;;;5074397;28;20439;-43
2022/11/28 09:53:02;;;;;;;34.55;16.88;;;7.80;99.90;;;;;;5073513;28;20055;-43
2022/11/28 09:55:40;;;;;;;29.83;16.27;;;8.00;99.90;;;;;;5073445;28;20094;-42
2022/11/28 09:58:36;;;;;;;29.60;16.60;;;8.10;99.90;;;;;;5073494;28;20047;-43
2022/11/28 10:01:34;;;;;;;28.83;15.38;;;7.50;99.90;;;;;;5057961;28;20060;-42
2022/11/28 10:04:34;;;;;;;24.15;12.45;;;8.00;99.90;;;;;;5073702;28;20084;-41
2022/11/28 10:07:00;;;;;;;32.53;16.50;;;7.60;99.90;;;;;;5073034;28;20049;-42
2022/11/28 10:10:04;;;;;;;31.27;16.15;;;8.10;99.90;;;;;;5073324;28;20628;-42
2022/11/28 10:12:33;;;;;;;;;;;7.60;99.90;;;;;;5032061;28;20060;-42
2022/11/28 10:15:14;;;;;;;29.38;15.68;;;7.80;99.90;;;;;;5065579;28;20358;-42
2022/11/28 10:18:04;;;;;;;29.85;15.77;;;8.20;99.90;;;;;;5073302;28;20049;-43
2022/11/28 10:20:39;;;;;;;31.30;18.27;;;7.90;99.90;;;;;;5073129;28;20052;-42
2022/11/28 10:23:18;;;;;;;45.22;21.02;;;8.30;99.90;;;;;;5073821;28;20048;-42
2022/11/28 10:25:53;;;;;;;34.05;17.80;;;7.80;99.90;;;;;;5073727;28;20048;-42
2022/11/28 10:28:26;;;;;;;39.72;20.38;;;8.30;99.90;;;;;;5073203;28;20091;-43
2022/11/28 10:31:04;;;;;;;35.58;16.95;;;8.20;99.90;;;;;;5073453;28;20064;-43
2022/11/28 10:33:40;;;;;;;32.70;17.83;;;7.60;99.90;;;;;;5072808;28;20101;-42
2022/11/28 10:36:13;;;;;;;37.67;18.90;;;8.20;99.90;;;;;;5073698;28;20048;-42
2022/11/28 10:38:39;;;;;;;30.30;15.57;;;8.00;99.90;;;;;;5072975;28;20055;-42
2022/11/28 10:41:38;;;;;;;35.45;17.65;;;8.30;99.90;;;;;;5074460;28;20040;-43
2022/11/28 10:44:38;;;;;;;36.60;17.73;;;7.60;99.90;;;;;;5068719;28;20451;-43
2022/11/28 10:47:22;;;;;;;33.38;15.32;;;8.10;99.90;;;;;;5076780;28;20040;-43
2022/11/28 10:50:01;;;;;;;33.85;17.52;;;8.20;99.90;;;;;;5076650;28;20044;-42
2022/11/28 10:52:45;;;;;;;32.42;16.40;;;8.50;99.90;;;;;;5076601;28;20052;-42
2022/11/28 10:55:24;;;;;;;37.65;19.02;;;8.10;99.90;;;;;;5076511;28;20044;-42
2022/11/28 10:58:26;;;;;;;39.03;19.90;;;8.40;99.90;;;;;;5076700;28;20048;-42
2022/11/28 11:00:56;;;;;;;34.92;18.58;;;7.70;99.90;;;;;;5075287;28;20057;-42
2022/11/28 11:03:28;;;;;;;25.25;12.23;;;7.60;99.90;;;;;;5076972;28;20064;-42
2022/11/28 11:05:54;;;;;;;32.55;16.42;;;8.50;99.90;;;;;;5075147;28;20040;-42
2022/11/28 11:08:23;;;;;;;33.15;16.92;;;8.60;99.90;;;;;;5075107;28;20098;-41
2022/11/28 11:10:51;;;;;;;25.85;14.80;;;8.60;99.90;;;;;;5077053;28;20127;-42
2022/11/28 11:13:21;;;;;;;39.88;18.00;;;8.70;99.90;;;;;;5076147;28;20045;-42
2022/11/28 11:15:51;;;;;;;37.55;17.98;;;8.10;99.90;;;;;;5076141;28;20095;-42
2022/11/28 11:18:30;;;;;;;28.02;15.27;;;8.50;99.90;;;;;;5076138;28;20052;-43
2022/11/28 11:21:21;;;;;;;27.75;14.80;;;8.40;99.90;;;;;;5075826;28;20494;-43
2022/11/28 11:23:49;;;;;;;28.00;15.82;;;7.80;99.90;;;;;;5076286;28;20156;-42
2022/11/28 11:26:38;;;;;;;29.77;15.65;;;8.60;99.90;;;;;;5075861;28;20098;-42
2022/11/28 11:29:04;;;;;;;30.80;15.73;;;8.20;99.90;;;;;;5074750;28;20475;-42
2022/11/28 11:31:39;;;;;;;25.95;13.57;;;8.80;99.90;;;;;;5075848;28;20406;-43
2022/11/28 11:34:17;;;;;;;28.88;15.95;;;8.30;99.90;;;;;;5075851;28;20056;-42
2022/11/28 11:36:43;;;;;;;27.55;14.73;;;8.90;99.90;;;;;;5075097;28;20462;-43
2022/11/28 11:39:09;;;;;;;28.38;14.98;;;8.00;99.90;;;;;;5075583;28;20055;-44
2022/11/28 11:41:37;;;;;;;34.13;17.45;;;9.00;99.90;;;;;;5058244;28;20052;-43
2022/11/28 11:44:14;;;;;;;26.75;15.05;;;8.90;99.90;;;;;;5075685;28;20048;-43
2022/11/28 11:47:02;;;;;;;32.70;17.25;;;8.80;99.90;;;;;;5074667;28;20075;-43
2022/11/28 11:49:44;;;;;;;31.38;16.65;;;8.30;99.90;;;;;;5075535;28;20052;-43
2022/11/28 11:52:25;;;;;;;29.33;16.02;;;9.00;99.90;;;;;;5074506;28;20474;-43
2022/11/28 11:55:12;;;;;;;32.83;16.23;;;8.10;99.90;;;;;;5076273;28;20041;-43
2022/11/28 11:57:51;;;;;;;31.15;15.82;;;8.30;99.90;;;;;;5075654;28;20124;-43
2022/11/28 12:00:19;;;;;;;29.73;15.77;;;9.00;99.90;;;;;;5075350;28;20364;-43
2022/11/28 12:03:08;;;;;;;26.63;13.85;;;8.50;99.90;;;;;;5075520;28;20056;-43
2022/11/28 12:05:55;;;;;;;33.50;16.08;;;9.00;99.90;;;;;;5075724;28;20139;-43
2022/11/28 12:08:46;;;;;;;22.38;12.70;;;9.00;99.90;;;;;;5074993;28;20383;-42
2022/11/28 12:11:23;;;;;;;21.80;12.48;;;9.10;99.90;;;;;;5075888;28;20053;-43
2022/11/28 12:13:50;;;;;;;24.08;13.57;;;8.30;99.90;;;;;;5073865;28;20106;-43
2022/11/28 12:16:40;;;;;;;21.23;12.80;;;8.30;99.90;;;;;;5074868;28;20044;-42
2022/11/28 12:19:06;;;;;;;25.52;13.38;;;8.30;99.90;;;;;;5074070;28;20045;-43
2022/11/28 12:22:05;;;;;;;28.67;13.90;;;8.20;99.90;;;;;;5074813;28;20509;-43
2022/11/28 12:24:49;;;;;;;24.38;13.75;;;8.50;99.90;;;;;;5057482;28;20049;-42
2022/11/28 12:27:32;;;;;;;25.42;13.88;;;8.90;99.90;;;;;;5075483;28;20041;-43
2022/11/28 12:30:27;;;;;;;28.52;14.93;;;8.30;99.90;;;;;;5075335;28;20056;-42
2022/11/28 12:33:11;;;;;;;26.92;15.20;;;9.10;99.90;;;;;;5074598;28;20048;-43
2022/11/28 12:35:40;;;;;;;25.35;13.77;;;8.40;99.90;;;;;;5074942;28;20045;-43
2022/11/28 12:38:21;;;;;;;22.25;12.50;;;8.30;99.90;;;;;;5073162;28;20048;-42
2022/11/28 12:41:02;;;;;;;26.05;16.10;;;8.40;99.90;;;;;;5074539;28;20098;-42
2022/11/28 12:43:49;;;;;;;25.80;14.38;;;9.10;99.90;;;;;;5073780;28;20131;-43
2022/11/28 12:46:29;;;;;;;29.58;14.20;;;9.10;99.90;;;;;;5074633;28;20044;-43
2022/11/28 12:49:16;;;;;;;25.85;14.55;;;8.30;99.90;;;;;;5074638;28;20109;-43
2022/11/28 12:52:13;;;;;;;25.15;14.07;;;9.10;99.90;;;;;;5075149;28;20052;-43
2022/11/28 12:55:20;;;;;;;29.95;18.15;;;9.10;99.90;;;;;;5074614;28;20056;-42
2022/11/28 12:58:18;;;;;;;29.98;17.30;;;9.00;99.90;;;;;;5074140;28;20051;-43
2022/11/28 13:01:02;;;;;;;34.78;21.63;;;8.50;99.90;;;;;;5074501;28;20057;-43
2022/11/28 13:03:39;;;;;;;30.50;16.00;;;8.40;99.90;;;;;;5073336;28;20121;-42
2022/11/28 13:06:20;;;;;;;32.13;16.80;;;9.10;99.90;;;;;;5073989;28;20127;-41
2022/11/28 13:09:07;;;;;;;28.08;14.60;;;8.30;99.90;;;;;;5073072;28;20052;-42